Terminal Aerodrome Forecast
Issued by NWS

Home | Current Version | Previous Version | Text Only | Print | Product List | Glossary On
Versions: 1 2 3 4 5 6 7 8 9 10 11 12 13 14 15 16 17 18 19 20 21 22 23
000
FTUS46 KLOX 170905 AAA
TAFOXR
TAF AMD
KOXR 170905Z 1709/1806 05007KT 6SM FU SKC WS020/04030KT
     FM171000 05015G25KT P6SM SKC WS020/04040KT
     FM171500 06022G32KT P6SM SKC
     FM172200 07015G25KT P6SM SKC
     FM180100 05008KT P6SM SKC=

USA.gov is the U.S. government's official web portal to all federal, state and local government web resources and services.